Time;durP1;ratioP1;P1;durP2;ratioP2;P2;SDS_P1;SDS_P2;PMS_P1;PMS_P2;Temp;Humidity;BMP_temperature;BMP_pressure;BME280_temperature;BME280_humidity;BME280_pressure;Samples;Min_cycle;Max_cycle;Signal;HPM_P1;HPM_P2
2022/08/06 00:00:58;;;;;;;6.80;2.20;;;;;;;13.09;68.88;102503.53;4936477;29;20036;-79
2022/08/06 00:03:24;;;;;;;4.25;2.08;;;;;;;13.05;69.34;102506.47;4936710;29;20072;-79
2022/08/06 00:05:49;;;;;;;6.80;1.85;;;;;;;12.99;69.61;102510.38;4932430;29;20499;-80
2022/08/06 00:08:15;;;;;;;4.28;1.98;;;;;;;12.96;69.68;102505.22;4930346;29;20428;-79
2022/08/06 00:10:40;;;;;;;6.80;2.33;;;;;;;12.94;69.66;102509.78;4919593;29;20075;-79
2022/08/06 00:13:06;;;;;;;4.45;2.03;;;;;;;12.91;70.20;102515.31;4936186;29;20080;-79
2022/08/06 00:15:33;;;;;;;7.30;2.20;;;;;;;12.90;70.00;102510.91;4935635;29;20110;-80
2022/08/06 00:17:58;;;;;;;4.22;2.15;;;;;;;12.85;70.17;102505.00;4936516;29;20024;-79
2022/08/06 00:20:23;;;;;;;4.27;2.10;;;;;;;12.82;70.31;102516.69;4948796;29;20532;-79
2022/08/06 00:22:48;;;;;;;5.45;2.28;;;;;;;12.81;70.42;102522.16;4949110;29;20278;-79
2022/08/06 00:25:14;;;;;;;5.75;2.25;;;;;;;12.79;70.76;102527.56;4932190;29;20028;-79
2022/08/06 00:27:40;;;;;;;6.50;2.38;;;;;;;12.73;70.37;102518.09;4936563;29;20038;-80
2022/08/06 00:30:06;;;;;;;6.45;2.63;;;;;;;12.70;70.62;102523.59;4919068;29;20491;-79
2022/08/06 00:32:32;;;;;;;5.10;2.30;;;;;;;12.67;70.79;102533.59;4943463;29;20036;-79
2022/08/06 00:34:57;;;;;;;6.88;2.22;;;;;;;12.66;70.51;102532.75;4935964;29;20095;-79
2022/08/06 00:37:22;;;;;;;4.38;2.28;;;;;;;12.59;70.89;102534.06;4948581;29;20023;-79
2022/08/06 00:39:48;;;;;;;5.78;2.30;;;;;;;12.52;70.78;102530.91;4940049;29;20030;-79
2022/08/06 00:42:13;;;;;;;5.00;2.20;;;;;;;12.45;71.38;102529.50;4948199;29;20058;-79
2022/08/06 00:44:38;;;;;;;5.72;2.17;;;;;;;12.42;71.09;102527.03;4934548;29;20056;-79
2022/08/06 00:47:04;;;;;;;5.03;2.15;;;;;;;12.35;71.21;102523.84;4938787;29;20387;-79
2022/08/06 00:49:29;;;;;;;3.50;2.30;;;;;;;12.37;71.90;102516.66;4944775;29;20027;-79
2022/08/06 00:51:59;;;;;;;4.97;2.10;;;;;;;12.35;71.82;102534.50;5005234;23;20055;-45
2022/08/06 00:54:24;;;;;;;6.35;2.30;;;;;;;12.36;71.33;102538.91;4921237;29;20086;-44
2022/08/06 00:56:49;;;;;;;9.98;2.70;;;;;;;12.36;71.86;102536.25;4917572;29;20474;-45
2022/08/06 00:59:15;;;;;;;4.87;2.27;;;;;;;12.36;71.86;102546.03;4935857;29;20027;-44
2022/08/06 01:01:40;;;;;;;5.63;2.40;;;;;;;12.28;72.04;102546.47;4922933;29;20778;-46
2022/08/06 01:04:06;;;;;;;7.05;2.47;;;;;;;12.23;71.92;102545.88;4935747;29;20027;-47
2022/08/06 01:06:31;;;;;;;5.22;2.33;;;;;;;12.26;72.51;102553.69;4929767;29;20047;-44
2022/08/06 01:08:56;;;;;;;5.63;2.50;;;;;;;12.20;72.37;102559.38;4919780;29;20028;-45
2022/08/06 01:11:22;;;;;;;10.07;2.67;;;;;;;12.16;72.60;102563.16;4933348;29;20055;-45
2022/08/06 01:13:47;;;;;;;9.13;2.35;;;;;;;12.11;72.42;102574.06;4932264;29;20479;-47
2022/08/06 01:16:28;;;;;;;6.30;2.80;;;;;;;12.11;72.39;102568.72;4930673;29;20534;-45
2022/08/06 01:19:08;;;;;;;6.65;3.08;;;;;;;12.10;72.42;102575.00;4935551;29;20035;-48
2022/08/06 01:21:49;;;;;;;5.07;2.97;;;;;;;12.05;72.94;102569.06;4934748;29;20028;-48
2022/08/06 01:24:40;;;;;;;9.40;3.35;;;;;;;12.03;72.82;102568.28;4930381;29;20455;-47
2022/08/06 01:27:43;;;;;;;5.78;2.92;;;;;;;12.06;72.01;102570.78;4922634;29;20439;-47
2022/08/06 01:30:13;;;;;;;10.35;3.28;;;;;;;11.95;73.23;102571.38;4934666;29;20088;-48
2022/08/06 01:32:46;;;;;;;11.57;3.05;;;;;;;11.95;73.25;102579.34;4934783;29;20067;-45
2022/08/06 01:35:19;;;;;;;9.50;3.00;;;;;;;11.92;73.49;102574.19;4934327;29;20083;-45
2022/08/06 01:37:58;;;;;;;5.55;2.85;;;;;;;11.97;73.05;102572.16;4923100;29;20038;-46
2022/08/06 01:40:27;;;;;;;;;;;;;;;12.08;70.86;102570.72;4916882;29;20399;-46
2022/08/06 01:42:55;;;;;;;8.02;3.30;;;;;;;11.89;73.02;102566.38;4930171;29;19946;-47
2022/08/06 01:45:25;;;;;;;5.15;3.10;;;;;;;11.81;73.48;102572.09;4935199;29;20550;-47
2022/08/06 01:47:53;;;;;;;9.90;3.05;;;;;;;11.79;73.47;102570.44;4933814;29;20036;-47
2022/08/06 01:50:22;;;;;;;11.32;3.40;;;;;;;11.79;73.81;102568.66;4935011;29;20051;-45
2022/08/06 01:52:49;;;;;;;;;;;;;;;11.93;71.01;102581.25;4922961;29;20040;-47
2022/08/06 01:55:16;;;;;;;7.75;3.33;;;;;;;11.76;73.76;102573.31;4915397;29;19915;-45
2022/08/06 01:57:49;;;;;;;7.25;3.67;;;;;;;11.73;73.96;102570.81;4915915;29;20039;-44
2022/08/06 02:00:16;;;;;;;8.77;3.47;;;;;;;11.69;74.09;102577.22;4911623;29;20028;-46
2022/08/06 02:02:43;;;;;;;6.95;3.42;;;;;;;11.68;74.55;102578.19;4915752;29;20036;-48
2022/08/06 02:05:10;;;;;;;9.25;3.72;;;;;;;11.60;74.84;102582.09;4914890;29;20066;-48
2022/08/06 02:07:39;;;;;;;6.20;3.72;;;;;;;11.60;74.66;102587.41;4915638;29;20040;-45
2022/08/06 02:10:05;;;;;;;;;;;;;;;11.75;72.02;102585.72;4916212;29;20508;-46
2022/08/06 02:12:34;;;;;;;7.95;3.70;;;;;;;11.68;74.04;102583.50;4915570;29;20021;-49
2022/08/06 02:15:09;;;;;;;6.38;3.63;;;;;;;11.64;74.65;102585.44;4915271;29;20024;-49
2022/08/06 02:17:49;;;;;;;7.25;3.47;;;;;;;11.61;74.60;102575.84;4915498;29;20388;-46
2022/08/06 02:20:18;;;;;;;9.15;3.80;;;;;;;11.58;75.44;102572.47;4915615;29;20085;-48
2022/08/06 02:22:45;;;;;;;12.13;4.07;;;;;;;11.56;75.00;102583.22;4915202;29;20043;-44
2022/08/06 02:25:13;;;;;;;7.65;3.83;;;;;;;11.53;75.20;102586.03;4915496;29;20039;-45
2022/08/06 02:27:43;;;;;;;6.57;3.60;;;;;;;11.56;75.14;102587.69;4915859;29;20036;-44
2022/08/06 02:30:10;;;;;;;9.60;3.70;;;;;;;11.51;74.65;102587.03;4915616;29;20384;-44
2022/08/06 02:32:35;;;;;;;8.57;3.60;;;;;;;11.50;74.86;102585.34;4897473;29;20127;-44
2022/08/06 02:35:01;;;;;;;6.28;2.72;;;;;;;11.48;75.01;102591.59;4915536;29;20413;-45
2022/08/06 02:37:34;;;;;;;6.13;2.78;;;;;;;11.45;74.78;102583.75;4916005;29;20044;-43
2022/08/06 02:40:08;;;;;;;7.80;2.67;;;;;;;11.42;73.88;102581.28;4919199;29;20032;-47
2022/08/06 02:42:40;;;;;;;6.38;2.75;;;;;;;11.37;74.21;102585.09;4919105;29;20036;-46
2022/08/06 02:45:14;;;;;;;5.10;2.53;;;;;;;11.35;74.28;102587.00;4918361;29;20043;-45
2022/08/06 02:47:52;;;;;;;4.78;2.50;;;;;;;11.34;74.20;102582.59;4918942;29;20032;-43
2022/08/06 02:50:24;;;;;;;5.40;2.55;;;;;;;11.28;73.77;102576.66;4918673;29;20040;-47
2022/08/06 02:52:59;;;;;;;5.10;2.50;;;;;;;11.27;73.93;102584.72;4918738;29;20086;-44
2022/08/06 02:55:32;;;;;;;4.45;2.28;;;;;;;11.25;74.20;102581.28;4918276;29;20040;-49
2022/08/06 02:58:07;;;;;;;6.57;2.50;;;;;;;11.17;74.46;102581.66;4918837;29;20047;-46
2022/08/06 03:00:35;;;;;;;5.63;2.63;;;;;;;11.17;74.33;102579.00;4907240;29;20028;-45
2022/08/06 03:03:04;;;;;;;5.90;2.40;;;;;;;11.14;74.75;102587.16;4917732;29;20040;-47
2022/08/06 03:05:29;;;;;;;4.72;2.53;;;;;;;11.09;74.66;102587.41;4918740;29;20084;-46
2022/08/06 03:07:57;;;;;;;5.72;2.70;;;;;;;11.08;74.66;102583.00;4917330;29;20036;-43
2022/08/06 03:10:25;;;;;;;6.05;2.40;;;;;;;11.05;75.09;102591.13;4918401;29;20031;-44
2022/08/06 03:12:52;;;;;;;4.32;2.50;;;;;;;11.03;74.74;102586.84;4918581;29;20028;-47
2022/08/06 03:15:19;;;;;;;2.67;2.00;;;;;;;11.01;74.41;102591.38;4917665;29;20483;-46
2022/08/06 03:17:46;;;;;;;3.88;2.45;;;;;;;11.00;74.30;102589.66;4918420;29;20083;-47
2022/08/06 03:20:14;;;;;;;4.95;2.50;;;;;;;10.94;74.51;102593.47;4917423;29;20477;-45
2022/08/06 03:22:40;;;;;;;4.10;2.45;;;;;;;10.99;74.78;102598.56;4918357;29;20111;-45
2022/08/06 03:25:09;;;;;;;5.95;2.90;;;;;;;11.00;74.44;102593.16;4918205;29;20080;-45
2022/08/06 03:27:37;;;;;;;5.00;2.40;;;;;;;11.00;73.84;102605.59;4916710;29;20472;-47
2022/08/06 03:30:03;;;;;;;5.15;2.60;;;;;;;10.98;74.03;102604.84;4917998;29;20119;-47
2022/08/06 03:32:29;;;;;;;7.38;2.72;;;;;;;10.96;74.35;102601.38;4917462;29;20487;-44
2022/08/06 03:34:57;;;;;;;5.05;2.60;;;;;;;10.98;74.12;102611.00;4917802;29;20054;-44
2022/08/06 03:37:23;;;;;;;4.20;2.75;;;;;;;10.94;74.47;102606.75;4917742;29;20036;-45
2022/08/06 03:39:50;;;;;;;7.00;2.88;;;;;;;10.96;74.27;102617.31;4918135;29;20063;-46
2022/08/06 03:42:16;;;;;;;6.85;3.10;;;;;;;10.94;74.41;102606.75;4917953;29;20526;-46
2022/08/06 03:44:41;;;;;;;6.18;2.85;;;;;;;10.92;74.70;102612.19;4917927;29;20377;-45
2022/08/06 03:47:12;;;;;;;4.22;2.63;;;;;;;10.89;74.45;102615.00;4917356;29;20047;-46
2022/08/06 03:49:48;;;;;;;4.93;2.85;;;;;;;10.85;74.43;102615.22;4917794;29;20036;-44
2022/08/06 03:52:19;;;;;;;7.68;3.08;;;;;;;10.84;74.74;102617.00;4917676;29;20156;-46
2022/08/06 03:54:48;;;;;;;5.75;3.22;;;;;;;10.77;74.88;102620.03;4917391;29;20028;-46
2022/08/06 03:57:18;;;;;;;6.07;3.38;;;;;;;10.74;75.14;102615.72;4917326;29;20132;-48
2022/08/06 03:59:46;;;;;;;5.05;3.00;;;;;;;10.71;74.73;102623.88;4911429;29;20036;-45
2022/08/06 04:02:14;;;;;;;6.20;3.05;;;;;;;10.67;75.07;102630.25;4910079;29;20104;-45
2022/08/06 04:04:41;;;;;;;8.05;3.33;;;;;;;10.68;75.29;102629.34;4917287;29;20039;-46
2022/08/06 04:07:08;;;;;;;9.73;3.20;;;;;;;10.66;75.19;102631.22;4917600;29;20115;-46
2022/08/06 04:09:34;;;;;;;5.78;3.00;;;;;;;10.65;75.43;102637.44;4916921;29;20456;-47
2022/08/06 04:12:01;;;;;;;9.30;3.10;;;;;;;10.66;75.83;102639.19;4917232;29;20064;-47
2022/08/06 04:14:27;;;;;;;4.85;2.92;;;;;;;10.63;75.72;102641.97;4916956;29;20027;-45
2022/08/06 04:16:53;;;;;;;5.55;3.15;;;;;;;10.60;76.04;102642.97;4917146;29;20043;-45
2022/08/06 04:19:19;;;;;;;7.85;3.25;;;;;;;10.53;75.80;102646.88;4916801;29;20476;-46
2022/08/06 04:21:46;;;;;;;6.00;3.38;;;;;;;10.55;75.91;102648.50;4916744;29;20036;-46
2022/08/06 04:24:12;;;;;;;7.15;3.53;;;;;;;10.51;76.03;102644.28;4917075;29;20032;-44
2022/08/06 04:26:39;;;;;;;5.40;3.38;;;;;;;10.53;76.06;102653.03;4917110;29;20676;-46
2022/08/06 04:29:08;;;;;;;6.22;3.28;;;;;;;10.56;75.54;102649.38;4915580;29;20028;-44
2022/08/06 04:31:36;;;;;;;5.78;3.30;;;;;;;10.58;76.10;102655.47;4916330;29;20096;-44
2022/08/06 04:34:02;;;;;;;7.38;3.42;;;;;;;10.55;75.88;102659.13;4917221;29;20039;-44
2022/08/06 04:36:28;;;;;;;8.98;3.45;;;;;;;10.52;76.49;102651.34;4916878;29;20028;-45
2022/08/06 04:38:54;;;;;;;5.03;3.30;;;;;;;10.55;76.47;102653.81;4916988;29;20115;-44
2022/08/06 04:41:20;;;;;;;9.23;3.30;;;;;;;10.53;76.72;102658.34;4916337;29;20167;-45
2022/08/06 04:43:46;;;;;;;6.75;3.20;;;;;;;10.54;75.93;102653.88;4916842;29;20467;-43
2022/08/06 04:46:12;;;;;;;5.50;3.33;;;;;;;10.53;76.52;102655.69;4916882;29;20032;-45
2022/08/06 04:48:37;;;;;;;9.20;3.35;;;;;;;10.53;76.86;102661.00;4909547;29;20021;-44
2022/08/06 04:51:04;;;;;;;8.27;3.85;;;;;;;10.57;76.94;102653.75;4910903;29;20028;-44
2022/08/06 04:53:38;;;;;;;7.18;3.45;;;;;;;10.60;76.93;102661.56;4915956;29;20491;-46
2022/08/06 04:56:03;;;;;;;7.68;3.53;;;;;;;10.61;77.54;102667.75;4916725;29;20159;-44
2022/08/06 04:58:28;;;;;;;6.40;3.75;;;;;;;10.64;77.21;102664.94;4916534;29;20549;-43
2022/08/06 05:00:54;;;;;;;7.05;3.28;;;;;;;10.68;77.21;102672.69;4903098;29;20559;-45
2022/08/06 05:03:19;;;;;;;6.03;3.72;;;;;;;10.69;77.60;102670.91;4916800;29;20059;-43
2022/08/06 05:05:54;;;;;;;5.75;3.25;;;;;;;10.72;77.89;102673.41;4916380;29;20035;-44
2022/08/06 05:08:22;;;;;;;3.53;3.20;;;;;;;10.76;77.76;102666.16;4916689;29;20559;-43
2022/08/06 05:10:53;;;;;;;5.90;3.47;;;;;;;10.82;77.83;102677.34;4915806;29;20028;-45
2022/08/06 05:13:22;;;;;;;4.50;3.60;;;;;;;10.81;78.51;102674.75;4915829;29;20040;-45
2022/08/06 05:15:53;;;;;;;9.75;3.60;;;;;;;10.86;78.34;102676.28;4916216;29;20047;-44
2022/08/06 05:18:25;;;;;;;9.38;3.45;;;;;;;10.89;78.49;102681.44;4916393;29;20036;-46
2022/08/06 05:20:54;;;;;;;7.47;4.03;;;;;;;10.95;78.44;102679.44;4915629;29;20039;-47
2022/08/06 05:23:32;;;;;;;4.97;3.58;;;;;;;11.02;78.50;102683.50;4915865;29;20028;-44
2022/08/06 05:25:58;;;;;;;8.65;4.00;;;;;;;11.08;78.72;102686.72;4905086;29;20028;-47
2022/08/06 05:28:24;;;;;;;6.70;3.78;;;;;;;11.13;78.72;102688.31;4916159;29;20568;-45
2022/08/06 05:30:50;;;;;;;7.93;4.10;;;;;;;11.26;79.04;102692.06;4915598;29;20110;-45
2022/08/06 05:33:33;;;;;;;7.68;4.00;;;;;;;11.32;78.54;102690.91;4915981;29;20066;-46
2022/08/06 05:36:00;;;;;;;6.93;3.90;;;;;;;11.41;79.45;102691.28;4916094;29;20032;-46
2022/08/06 05:38:26;;;;;;;10.23;4.13;;;;;;;11.50;78.96;102695.28;4915212;29;20059;-45
2022/08/06 05:40:55;;;;;;;8.73;3.88;;;;;;;11.60;78.99;102701.84;4915651;29;20068;-44
2022/08/06 05:43:21;;;;;;;11.63;3.97;;;;;;;11.76;78.57;102699.28;4916247;29;20029;-47
2022/08/06 05:45:49;;;;;;;10.35;3.90;;;;;;;11.89;78.59;102694.19;4915809;29;20024;-45
2022/08/06 05:48:18;;;;;;;8.65;3.67;;;;;;;12.02;78.10;102691.72;4915140;29;20071;-47
2022/08/06 05:50:49;;;;;;;9.23;3.60;;;;;;;12.13;78.49;102692.03;4915731;29;20436;-46
2022/08/06 05:53:30;;;;;;;7.82;3.70;;;;;;;12.26;77.92;102700.22;4915194;29;20488;-45
2022/08/06 05:55:59;;;;;;;6.20;3.45;;;;;;;12.40;78.05;102702.13;4916050;29;20067;-44
2022/08/06 05:58:42;;;;;;;7.85;3.70;;;;;;;12.48;77.77;102702.56;4916040;29;20052;-45
2022/08/06 06:01:09;;;;;;;10.30;3.70;;;;;;;12.59;77.99;102696.66;4908255;29;20108;-47
2022/08/06 06:03:37;;;;;;;14.98;4.03;;;;;;;12.68;77.80;102704.13;4915510;29;20039;-45
2022/08/06 06:06:03;;;;;;;11.07;4.40;;;;;;;12.84;77.67;102709.47;4916107;29;20043;-46
2022/08/06 06:08:29;;;;;;;10.75;3.92;;;;;;;12.96;77.50;102711.44;4915313;29;20339;-44
2022/08/06 06:10:56;;;;;;;11.70;4.10;;;;;;;13.03;77.37;102709.28;4898798;29;20024;-45
2022/08/06 06:13:23;;;;;;;14.70;4.10;;;;;;;13.07;77.70;102705.50;4918445;29;20064;-48
2022/08/06 06:16:12;;;;;;;13.80;4.25;;;;;;;13.17;76.96;102708.47;4918899;29;20031;-45
2022/08/06 06:18:38;;;;;;;15.80;4.45;;;;;;;13.26;78.04;102712.44;4912391;29;20047;-45
2022/08/06 06:21:12;;;;;;;13.33;4.03;;;;;;;13.33;77.60;102717.34;4910718;29;20032;-45
2022/08/06 06:23:50;;;;;;;13.25;4.05;;;;;;;13.42;77.60;102702.63;4908938;29;20855;-47
2022/08/06 06:26:45;;;;;;;14.25;4.30;;;;;;;13.55;76.98;102708.06;4920037;29;20067;-45
2022/08/06 06:29:35;;;;;;;8.45;4.18;;;;;;;13.70;77.81;102711.63;4929965;29;20486;-45
2022/08/06 06:32:18;;;;;;;11.75;4.00;;;;;;;13.85;77.36;102707.19;4918742;29;20041;-45
2022/08/06 06:34:52;;;;;;;8.45;4.10;;;;;;;14.01;77.45;102701.78;4902443;29;20115;-45
2022/08/06 06:37:55;;;;;;;8.30;3.60;;;;;;;14.24;76.55;102708.38;4913547;29;20032;-45
2022/08/06 06:40:56;;;;;;;12.20;3.80;;;;;;;14.51;76.04;102710.25;4906160;29;20036;-44
2022/08/06 06:43:52;;;;;;;8.07;3.58;;;;;;;14.84;75.26;102717.97;4921647;29;20518;-45
2022/08/06 06:46:23;;;;;;;9.32;3.40;;;;;;;15.20;74.61;102712.97;4888339;29;20040;-47
2022/08/06 06:48:57;;;;;;;8.00;3.13;;;;;;;15.52;73.77;102716.13;4921155;29;20133;-50
2022/08/06 06:51:33;;;;;;;9.20;3.10;;;;;;;15.75;73.09;102719.94;4917461;29;20402;-47
2022/08/06 06:53:58;;;;;;;6.82;2.70;;;;;;;16.08;71.12;102726.63;4906523;29;20052;-46
2022/08/06 06:56:27;;;;;;;8.20;2.70;;;;;;;16.31;70.95;102719.66;4915898;29;20104;-47
2022/08/06 06:59:01;;;;;;;11.38;2.88;;;;;;;16.64;70.02;102719.03;4916382;29;20044;-48
2022/08/06 07:01:30;;;;;;;4.22;2.47;;;;;;;16.93;67.83;102716.06;4906204;29;20032;-49
2022/08/06 07:03:58;;;;;;;5.88;2.53;;;;;;;17.06;67.38;102721.41;4926330;29;20099;-49
2022/08/06 07:06:26;;;;;;;7.18;2.10;;;;;;;17.33;67.19;102712.25;4924089;29;20383;-46
2022/08/06 07:08:52;;;;;;;7.85;2.10;;;;;;;17.48;66.39;102719.13;4932870;29;20047;-47
2022/08/06 07:11:23;;;;;;;7.32;2.00;;;;;;;17.78;65.91;102714.22;4929833;29;20129;-48
2022/08/06 07:13:50;;;;;;;5.22;2.00;;;;;;;18.01;64.43;102718.66;4928904;29;20036;-48
2022/08/06 07:16:20;;;;;;;5.53;1.67;;;;;;;18.39;63.64;102717.47;4908931;29;20029;-46
2022/08/06 07:18:47;;;;;;;6.43;1.75;;;;;;;18.61;61.73;102719.25;4903332;29;20044;-48
2022/08/06 07:21:15;;;;;;;6.07;1.35;;;;;;;18.84;60.31;102720.13;4911779;29;20087;-49
2022/08/06 07:23:42;;;;;;;4.28;1.40;;;;;;;19.11;60.31;102721.50;4904227;29;20047;-49
2022/08/06 07:26:09;;;;;;;3.03;1.00;;;;;;;19.21;55.70;102730.53;4909387;29;20091;-47
2022/08/06 07:28:36;;;;;;;3.88;1.00;;;;;;;19.50;55.51;102723.66;4917818;29;20051;-48
2022/08/06 07:31:04;;;;;;;4.10;1.30;;;;;;;19.76;55.70;102729.56;4919011;29;20123;-46
2022/08/06 07:33:31;;;;;;;9.15;1.63;;;;;;;20.10;55.87;102729.31;4909065;29;20059;-48
2022/08/06 07:35:59;;;;;;;4.43;1.60;;;;;;;20.27;53.32;102733.25;4914535;29;20043;-48
2022/08/06 07:38:27;;;;;;;2.88;1.00;;;;;;;20.41;51.94;102740.97;4905687;29;20045;-47
2022/08/06 07:40:57;;;;;;;6.45;1.40;;;;;;;20.60;51.89;102737.50;4911334;29;20036;-46
2022/08/06 07:43:51;;;;;;;2.10;0.75;;;;;;;20.81;53.66;102742.81;4904746;29;20037;-47
2022/08/06 07:46:20;;;;;;;4.88;1.00;;;;;;;21.03;50.12;102747.13;4905892;29;20442;-49
2022/08/06 07:48:47;;;;;;;;;;;;;;;21.26;54.99;102744.16;4917100;29;20036;-53
2022/08/06 07:51:13;;;;;;;7.40;1.00;;;;;;;21.55;50.24;102741.47;4917143;29;20018;-51
2022/08/06 07:53:41;;;;;;;5.43;1.15;;;;;;;21.59;48.25;102745.59;4917551;29;20108;-47
2022/08/06 07:56:08;;;;;;;2.50;1.13;;;;;;;21.88;46.52;102747.38;4917811;29;20373;-47
2022/08/06 07:58:36;;;;;;;5.45;1.17;;;;;;;22.12;47.25;102746.06;4917612;29;20043;-47
2022/08/06 08:01:01;;;;;;;3.35;1.20;;;;;;;22.27;47.39;102743.72;4907565;29;20127;-47
2022/08/06 08:06:17;;;;;;;6.45;1.27;;;;;;;22.52;45.81;102751.19;4917317;29;20087;-48
2022/08/06 08:08:45;;;;;;;4.75;1.30;;;;;;;22.56;44.63;102751.72;4917575;29;20032;-51
2022/08/06 08:11:13;;;;;;;2.22;0.77;;;;;;;22.87;44.38;102746.84;4916747;29;20044;-48
2022/08/06 08:13:39;;;;;;;3.78;1.33;;;;;;;22.90;45.55;102756.53;4916886;29;20043;-51
2022/08/06 08:16:07;;;;;;;3.25;0.95;;;;;;;23.13;44.48;102750.69;4905044;29;20123;-50
2022/08/06 08:18:32;;;;;;;4.45;1.20;;;;;;;23.19;43.88;102748.22;4916498;29;20043;-48
2022/08/06 08:20:59;;;;;;;4.57;1.20;;;;;;;23.43;44.39;102755.75;4917183;29;20039;-50
2022/08/06 08:23:26;;;;;;;5.28;1.10;;;;;;;23.60;43.07;102748.59;4916552;29;20024;-48
2022/08/06 08:25:51;;;;;;;4.00;0.98;;;;;;;23.83;42.61;102739.94;4914424;29;20048;-48
2022/08/06 08:28:16;;;;;;;6.43;1.17;;;;;;;24.00;41.48;102740.94;4916930;29;20040;-47
2022/08/06 08:30:42;;;;;;;2.65;1.10;;;;;;;24.17;41.61;102745.41;4916285;29;20367;-47
2022/08/06 08:33:09;;;;;;;6.30;1.20;;;;;;;24.44;39.95;102754.38;4916067;29;20060;-51
2022/08/06 08:35:34;;;;;;;5.68;0.88;;;;;;;24.53;39.43;102752.53;4923574;29;20405;-48
2022/08/06 08:38:00;;;;;;;6.15;0.82;;;;;;;24.56;39.89;102752.25;4921802;29;20032;-47
2022/08/06 08:40:28;;;;;;;5.03;1.07;;;;;;;24.64;39.99;102751.44;4917355;29;20028;-52
2022/08/06 08:42:57;;;;;;;3.08;0.75;;;;;;;24.53;39.95;102755.25;4916702;29;20362;-47
2022/08/06 08:45:24;;;;;;;2.70;0.90;;;;;;;24.52;38.31;102751.69;4916717;29;20032;-49
2022/08/06 08:47:51;;;;;;;4.05;0.98;;;;;;;24.69;37.90;102749.91;4915923;29;20036;-48
2022/08/06 08:50:22;;;;;;;3.22;0.80;;;;;;;24.64;37.95;102754.16;4916499;29;20028;-45
2022/08/06 08:52:51;;;;;;;7.05;6.32;;;;;;;24.55;38.50;102751.41;4916245;29;20044;-47
2022/08/06 08:55:22;;;;;;;9.75;5.60;;;;;;;24.59;36.45;102748.38;4915869;29;20052;-46
2022/08/06 08:57:51;;;;;;;4.78;2.33;;;;;;;24.67;36.74;102757.38;4916612;29;20024;-47
2022/08/06 09:00:16;;;;;;;3.22;1.60;;;;;;;25.00;35.97;102757.47;4915828;29;20391;-45
2022/08/06 09:02:42;;;;;;;4.80;1.50;;;;;;;25.06;36.23;102747.78;4916292;29;20083;-46
2022/08/06 09:05:09;;;;;;;4.68;1.80;;;;;;;25.26;35.81;102756.47;4916792;29;20054;-45
2022/08/06 09:07:34;;;;;;;4.18;1.30;;;;;;;25.56;36.71;102760.44;4913026;29;20109;-47
2022/08/06 09:10:00;;;;;;;7.22;1.15;;;;;;;25.86;35.58;102758.03;4907166;29;20115;-47
2022/08/06 09:12:25;;;;;;;1.75;0.82;;;;;;;26.18;35.33;102756.28;4903790;29;20032;-46
2022/08/06 09:14:51;;;;;;;2.60;0.90;;;;;;;26.38;34.81;102760.31;4916424;29;20036;-46
2022/08/06 09:17:17;;;;;;;5.38;1.20;;;;;;;26.70;34.69;102752.19;4904090;29;20310;-46
2022/08/06 09:19:43;;;;;;;7.30;1.55;;;;;;;26.69;33.54;102762.22;4897732;29;20085;-46
2022/08/06 09:22:10;;;;;;;4.40;1.08;;;;;;;26.84;33.95;102761.47;4899785;29;20037;-47
2022/08/06 09:24:36;;;;;;;1.83;1.00;;;;;;;27.01;32.99;102770.41;4913448;29;20063;-50
2022/08/06 09:27:06;;;;;;;5.00;0.85;;;;;;;26.95;31.36;102756.47;4898876;29;20032;-48
2022/08/06 09:29:32;;;;;;;2.35;0.80;;;;;;;27.24;32.39;102754.88;4913382;29;20039;-50
2022/08/06 09:31:59;;;;;;;3.95;0.88;;;;;;;27.63;31.77;102753.09;4911121;29;20025;-45
2022/08/06 09:34:38;;;;;;;3.28;0.85;;;;;;;27.79;33.10;102758.34;4913599;29;20036;-46
2022/08/06 09:37:04;;;;;;;2.65;0.60;;;;;;;28.04;30.30;102758.97;4914749;29;20051;-45
2022/08/06 09:39:35;;;;;;;2.35;0.80;;;;;;;27.67;31.04;102759.84;4913841;29;20028;-49
2022/08/06 09:42:00;;;;;;;5.07;2.08;;;;;;;27.49;30.91;102763.75;4912903;29;20539;-46
2022/08/06 09:44:26;;;;;;;7.93;3.60;;;;;;;27.12;31.09;102761.81;4912553;29;20067;-48
2022/08/06 09:46:52;;;;;;;5.20;2.15;;;;;;;27.13;32.46;102763.50;4905583;29;20048;-47
2022/08/06 09:49:18;;;;;;;3.35;1.00;;;;;;;27.31;32.27;102760.50;4918867;29;20063;-50
2022/08/06 09:51:44;;;;;;;1.48;0.70;;;;;;;27.07;31.17;102766.97;4918465;29;20472;-47
2022/08/06 09:54:18;;;;;;;2.85;1.00;;;;;;;27.17;30.73;102762.09;4918816;29;20084;-46
2022/08/06 09:56:44;;;;;;;4.97;0.70;;;;;;;27.38;29.96;102760.59;4912337;29;20125;-44
2022/08/06 09:59:11;;;;;;;3.33;0.70;;;;;;;27.57;29.85;102764.72;4917196;29;20057;-45
2022/08/06 10:01:45;;;;;;;1.38;0.50;;;;;;;27.79;30.26;102762.97;4907856;29;20032;-44
2022/08/06 10:04:24;;;;;;;2.53;1.00;;;;;;;28.34;30.61;102766.31;4918349;29;20463;-46
2022/08/06 10:06:58;;;;;;;2.63;0.98;;;;;;;28.51;29.42;102758.75;4919268;29;20044;-45
2022/08/06 10:09:24;;;;;;;2.22;0.98;;;;;;;28.59;29.13;102765.03;4931659;29;20036;-44
2022/08/06 10:11:50;;;;;;;6.50;3.17;;;;;;;28.73;28.89;102765.19;4918723;29;20031;-45
2022/08/06 10:14:33;;;;;;;3.20;1.40;;;;;;;28.57;30.50;102758.88;4919091;29;20095;-45
2022/08/06 10:17:14;;;;;;;3.38;1.70;;;;;;;28.43;30.76;102766.03;4919129;29;20040;-46
2022/08/06 10:19:44;;;;;;;3.20;1.30;;;;;;;28.15;29.33;102763.13;4918439;29;20103;-46
2022/08/06 10:22:17;;;;;;;5.72;1.20;;;;;;;28.41;29.33;102764.53;4919394;29;20035;-54
2022/08/06 10:24:44;;;;;;;5.03;2.03;;;;;;;28.46;28.05;102753.88;4919230;29;20059;-46
2022/08/06 10:27:12;;;;;;;2.65;1.20;;;;;;;28.51;26.76;102751.44;4918243;29;20032;-44
2022/08/06 10:29:52;;;;;;;2.45;1.00;;;;;;;28.64;29.44;102738.97;4918587;29;20055;-44
2022/08/06 10:32:37;;;;;;;3.38;0.90;;;;;;;28.76;28.88;102741.03;4918290;29;20099;-47
2022/08/06 10:35:05;;;;;;;2.22;0.88;;;;;;;28.87;27.70;102736.09;4919141;29;20088;-51
2022/08/06 10:37:41;;;;;;;4.43;1.13;;;;;;;28.89;28.80;102739.47;4919006;29;20030;-52
2022/08/06 10:40:08;;;;;;;5.75;1.70;;;;;;;28.89;27.94;102740.31;4918522;29;20031;-49
2022/08/06 10:42:34;;;;;;;2.08;1.20;;;;;;;28.38;28.33;102740.34;4918255;29;20052;-54
2022/08/06 10:45:01;;;;;;;1.47;1.17;;;;;;;28.16;28.76;102739.38;4917944;29;20407;-45
2022/08/06 10:47:27;;;;;;;15.63;1.90;;;;;;;27.97;28.82;102732.63;4918410;29;20476;-49
2022/08/06 10:49:53;;;;;;;2.58;0.70;;;;;;;28.33;28.86;102729.09;4917731;29;20048;-46
2022/08/06 10:52:20;;;;;;;3.22;0.80;;;;;;;28.77;27.13;102730.94;4918304;29;20048;-50
2022/08/06 10:54:46;;;;;;;3.97;0.90;;;;;;;28.78;27.33;102718.97;4918012;29;20032;-49
2022/08/06 10:57:14;;;;;;;2.05;0.73;;;;;;;28.84;27.70;102722.78;4917979;29;20116;-50
2022/08/06 10:59:45;;;;;;;0.95;0.60;;;;;;;29.05;27.92;102732.91;4911929;29;20088;-47
2022/08/06 11:02:52;;;;;;;4.20;1.20;;;;;;;29.44;29.43;102724.22;4910260;29;20040;-46
2022/08/06 11:05:20;;;;;;;1.83;0.70;;;;;;;28.72;26.69;102719.72;4870584;29;20037;-45
2022/08/06 11:08:00;;;;;;;0.70;0.40;;;;;;;28.44;28.65;102728.63;4904902;29;20039;-45
2022/08/06 11:10:40;;;;;;;1.33;0.50;;;;;;;28.51;27.25;102732.28;4921715;29;20057;-50
2022/08/06 11:13:23;;;;;;;2.58;0.73;;;;;;;28.67;26.99;102725.78;4918027;29;20060;-47
2022/08/06 11:15:50;;;;;;;2.35;0.60;;;;;;;28.69;25.56;102722.84;4891580;29;20028;-47
2022/08/06 11:18:16;;;;;;;5.00;0.68;;;;;;;28.91;26.30;102715.50;4917419;29;20035;-49
2022/08/06 11:20:44;;;;;;;1.90;0.30;;;;;;;28.88;26.21;102716.75;4917864;29;20031;-46
2022/08/06 11:23:12;;;;;;;1.98;0.40;;;;;;;29.06;24.99;102720.91;4917895;29;20028;-46
2022/08/06 11:25:40;;;;;;;2.50;0.60;;;;;;;29.05;24.26;102717.34;4917192;29;20112;-45
2022/08/06 11:28:07;;;;;;;2.45;0.68;;;;;;;29.21;24.89;102718.13;4917225;29;20025;-47
2022/08/06 11:30:53;;;;;;;5.18;1.00;;;;;;;29.40;26.26;102722.09;4917927;29;20145;-45
2022/08/06 11:33:44;;;;;;;2.42;0.50;;;;;;;29.43;25.40;102710.75;4912530;29;20424;-46
2022/08/06 11:36:23;;;;;;;2.83;0.60;;;;;;;29.27;25.27;102718.19;4917112;29;20028;-45
2022/08/06 11:38:54;;;;;;;1.65;0.60;;;;;;;29.26;24.64;102707.44;4917129;29;20387;-49